sensor_id;sensor_type;location;lat;lon;timestamp;P1;durP1;ratioP1;P2;durP2;ratioP2
28613;SDS011;15806;53.548;9.964;2022-07-05T00:02:21;4.03;;;1.48;;
28613;SDS011;15806;53.548;9.964;2022-07-05T00:05:43;9.00;;;2.13;;
28613;SDS011;15806;53.548;9.964;2022-07-05T00:07:23;5.97;;;1.47;;
28613;SDS011;15806;53.548;9.964;2022-07-05T00:09:04;5.17;;;1.63;;
28613;SDS011;15806;53.548;9.964;2022-07-05T00:10:44;4.37;;;1.43;;
28613;SDS011;15806;53.548;9.964;2022-07-05T00:12:26;7.13;;;2.00;;
28613;SDS011;15806;53.548;9.964;2022-07-05T00:14:09;5.80;;;1.52;;
28613;SDS011;15806;53.548;9.964;2022-07-05T00:15:49;10.07;;;2.13;;
28613;SDS011;15806;53.548;9.964;2022-07-05T00:17:30;5.47;;;1.80;;
28613;SDS011;15806;53.548;9.964;2022-07-05T00:19:10;8.13;;;1.93;;
28613;SDS011;15806;53.548;9.964;2022-07-05T00:20:51;4.03;;;1.63;;
28613;SDS011;15806;53.548;9.964;2022-07-05T00:22:32;4.07;;;1.60;;
28613;SDS011;15806;53.548;9.964;2022-07-05T00:24:12;8.77;;;1.80;;
28613;SDS011;15806;53.548;9.964;2022-07-05T00:25:53;5.73;;;1.50;;
28613;SDS011;15806;53.548;9.964;2022-07-05T00:27:33;9.47;;;2.43;;
28613;SDS011;15806;53.548;9.964;2022-07-05T00:29:14;4.60;;;1.90;;
28613;SDS011;15806;53.548;9.964;2022-07-05T00:30:55;6.65;;;1.90;;
28613;SDS011;15806;53.548;9.964;2022-07-05T00:34:16;7.68;;;2.15;;
28613;SDS011;15806;53.548;9.964;2022-07-05T00:35:57;11.20;;;1.93;;
28613;SDS011;15806;53.548;9.964;2022-07-05T00:37:38;5.23;;;2.13;;
28613;SDS011;15806;53.548;9.964;2022-07-05T00:39:18;6.77;;;1.83;;
28613;SDS011;15806;53.548;9.964;2022-07-05T00:40:59;7.83;;;2.33;;
28613;SDS011;15806;53.548;9.964;2022-07-05T00:42:39;5.97;;;2.17;;
28613;SDS011;15806;53.548;9.964;2022-07-05T00:44:41;6.37;;;1.80;;
28613;SDS011;15806;53.548;9.964;2022-07-05T00:46:21;7.25;;;2.17;;
28613;SDS011;15806;53.548;9.964;2022-07-05T00:48:01;6.97;;;2.58;;
28613;SDS011;15806;53.548;9.964;2022-07-05T00:49:42;7.47;;;2.07;;
28613;SDS011;15806;53.548;9.964;2022-07-05T00:51:24;3.47;;;1.98;;
28613;SDS011;15806;53.548;9.964;2022-07-05T00:53:06;9.90;;;2.28;;
28613;SDS011;15806;53.548;9.964;2022-07-05T00:54:46;6.17;;;1.97;;
28613;SDS011;15806;53.548;9.964;2022-07-05T00:56:28;9.27;;;2.78;;
28613;SDS011;15806;53.548;9.964;2022-07-05T00:58:08;5.53;;;2.00;;
28613;SDS011;15806;53.548;9.964;2022-07-05T00:59:50;7.88;;;2.25;;
28613;SDS011;15806;53.548;9.964;2022-07-05T01:01:31;8.70;;;2.47;;
28613;SDS011;15806;53.548;9.964;2022-07-05T01:03:11;7.10;;;2.27;;
28613;SDS011;15806;53.548;9.964;2022-07-05T01:04:52;6.63;;;2.73;;
28613;SDS011;15806;53.548;9.964;2022-07-05T01:06:32;4.33;;;2.47;;
28613;SDS011;15806;53.548;9.964;2022-07-05T01:08:13;3.72;;;2.53;;
28613;SDS011;15806;53.548;9.964;2022-07-05T01:09:54;5.95;;;2.30;;
28613;SDS011;15806;53.548;9.964;2022-07-05T01:11:36;6.03;;;2.90;;
28613;SDS011;15806;53.548;9.964;2022-07-05T01:13:17;5.63;;;2.67;;
28613;SDS011;15806;53.548;9.964;2022-07-05T01:14:57;6.97;;;2.70;;
28613;SDS011;15806;53.548;9.964;2022-07-05T01:16:38;7.03;;;2.40;;
28613;SDS011;15806;53.548;9.964;2022-07-05T01:18:19;8.77;;;3.03;;
28613;SDS011;15806;53.548;9.964;2022-07-05T01:20:02;6.43;;;2.53;;
28613;SDS011;15806;53.548;9.964;2022-07-05T01:21:44;13.27;;;2.70;;
28613;SDS011;15806;53.548;9.964;2022-07-05T01:23:28;6.80;;;2.67;;
28613;SDS011;15806;53.548;9.964;2022-07-05T01:25:10;7.03;;;2.30;;
28613;SDS011;15806;53.548;9.964;2022-07-05T01:26:51;8.48;;;2.83;;
28613;SDS011;15806;53.548;9.964;2022-07-05T01:28:32;6.40;;;2.70;;
28613;SDS011;15806;53.548;9.964;2022-07-05T01:30:13;4.97;;;2.90;;
28613;SDS011;15806;53.548;9.964;2022-07-05T01:31:54;7.15;;;2.70;;
28613;SDS011;15806;53.548;9.964;2022-07-05T01:33:34;8.47;;;2.60;;
28613;SDS011;15806;53.548;9.964;2022-07-05T01:35:15;9.83;;;3.17;;
28613;SDS011;15806;53.548;9.964;2022-07-05T01:36:58;6.95;;;2.60;;
28613;SDS011;15806;53.548;9.964;2022-07-05T01:38:38;11.60;;;2.70;;
28613;SDS011;15806;53.548;9.964;2022-07-05T01:40:19;5.00;;;2.10;;
28613;SDS011;15806;53.548;9.964;2022-07-05T01:42:00;5.60;;;2.63;;
28613;SDS011;15806;53.548;9.964;2022-07-05T01:43:41;8.57;;;2.80;;
28613;SDS011;15806;53.548;9.964;2022-07-05T01:45:22;6.90;;;2.73;;
28613;SDS011;15806;53.548;9.964;2022-07-05T01:47:03;5.33;;;2.63;;
28613;SDS011;15806;53.548;9.964;2022-07-05T01:48:46;6.00;;;2.58;;
28613;SDS011;15806;53.548;9.964;2022-07-05T01:50:31;12.23;;;3.17;;
28613;SDS011;15806;53.548;9.964;2022-07-05T01:52:16;7.97;;;3.35;;
28613;SDS011;15806;53.548;9.964;2022-07-05T01:53:59;6.10;;;2.85;;
28613;SDS011;15806;53.548;9.964;2022-07-05T01:55:40;5.55;;;2.50;;
28613;SDS011;15806;53.548;9.964;2022-07-05T01:57:20;6.23;;;2.80;;
28613;SDS011;15806;53.548;9.964;2022-07-05T01:59:01;9.10;;;2.97;;
28613;SDS011;15806;53.548;9.964;2022-07-05T02:00:48;12.10;;;3.33;;
28613;SDS011;15806;53.548;9.964;2022-07-05T02:02:31;7.70;;;3.13;;
28613;SDS011;15806;53.548;9.964;2022-07-05T02:04:11;8.77;;;2.50;;
28613;SDS011;15806;53.548;9.964;2022-07-05T02:05:53;8.82;;;3.17;;
28613;SDS011;15806;53.548;9.964;2022-07-05T02:07:33;8.90;;;3.08;;
28613;SDS011;15806;53.548;9.964;2022-07-05T02:09:14;8.13;;;3.03;;
28613;SDS011;15806;53.548;9.964;2022-07-05T02:10:54;8.27;;;3.50;;
28613;SDS011;15806;53.548;9.964;2022-07-05T02:12:35;5.47;;;3.03;;
28613;SDS011;15806;53.548;9.964;2022-07-05T02:14:15;10.30;;;3.10;;
28613;SDS011;15806;53.548;9.964;2022-07-05T02:15:56;9.17;;;2.90;;
28613;SDS011;15806;53.548;9.964;2022-07-05T02:17:37;6.33;;;3.53;;
28613;SDS011;15806;53.548;9.964;2022-07-05T02:19:17;5.97;;;3.10;;
28613;SDS011;15806;53.548;9.964;2022-07-05T02:20:58;9.53;;;3.40;;
28613;SDS011;15806;53.548;9.964;2022-07-05T02:22:38;8.17;;;3.30;;
28613;SDS011;15806;53.548;9.964;2022-07-05T02:24:19;9.03;;;3.40;;
28613;SDS011;15806;53.548;9.964;2022-07-05T02:26:01;7.55;;;3.60;;
28613;SDS011;15806;53.548;9.964;2022-07-05T02:27:41;9.73;;;3.90;;
28613;SDS011;15806;53.548;9.964;2022-07-05T02:29:22;7.30;;;3.50;;
28613;SDS011;15806;53.548;9.964;2022-07-05T02:31:21;7.47;;;3.63;;
28613;SDS011;15806;53.548;9.964;2022-07-05T02:33:01;7.05;;;3.70;;
28613;SDS011;15806;53.548;9.964;2022-07-05T02:34:42;7.40;;;3.83;;
28613;SDS011;15806;53.548;9.964;2022-07-05T02:36:22;5.93;;;3.40;;
28613;SDS011;15806;53.548;9.964;2022-07-05T02:38:03;8.17;;;3.77;;
28613;SDS011;15806;53.548;9.964;2022-07-05T02:39:44;7.07;;;3.73;;
28613;SDS011;15806;53.548;9.964;2022-07-05T02:41:24;7.40;;;4.20;;
28613;SDS011;15806;53.548;9.964;2022-07-05T02:43:05;7.97;;;4.33;;
28613;SDS011;15806;53.548;9.964;2022-07-05T02:44:45;6.00;;;3.60;;
28613;SDS011;15806;53.548;9.964;2022-07-05T02:46:26;6.73;;;4.03;;
28613;SDS011;15806;53.548;9.964;2022-07-05T02:48:06;6.13;;;4.37;;
28613;SDS011;15806;53.548;9.964;2022-07-05T02:49:47;7.43;;;4.07;;
28613;SDS011;15806;53.548;9.964;2022-07-05T02:51:27;9.90;;;4.27;;
28613;SDS011;15806;53.548;9.964;2022-07-05T02:53:08;7.03;;;3.90;;
28613;SDS011;15806;53.548;9.964;2022-07-05T02:54:48;7.20;;;3.97;;
28613;SDS011;15806;53.548;9.964;2022-07-05T02:56:29;7.87;;;3.80;;
28613;SDS011;15806;53.548;9.964;2022-07-05T02:58:09;8.10;;;3.77;;
28613;SDS011;15806;53.548;9.964;2022-07-05T02:59:52;5.23;;;3.67;;
28613;SDS011;15806;53.548;9.964;2022-07-05T03:01:33;8.18;;;3.75;;
28613;SDS011;15806;53.548;9.964;2022-07-05T03:03:14;6.63;;;4.27;;
28613;SDS011;15806;53.548;9.964;2022-07-05T03:06:36;10.90;;;4.32;;
28613;SDS011;15806;53.548;9.964;2022-07-05T03:08:17;6.60;;;3.67;;
28613;SDS011;15806;53.548;9.964;2022-07-05T03:09:57;9.87;;;4.30;;
28613;SDS011;15806;53.548;9.964;2022-07-05T03:11:38;5.80;;;3.50;;
28613;SDS011;15806;53.548;9.964;2022-07-05T03:13:18;7.03;;;3.90;;
28613;SDS011;15806;53.548;9.964;2022-07-05T03:14:59;7.30;;;4.23;;
28613;SDS011;15806;53.548;9.964;2022-07-05T03:16:39;10.10;;;4.20;;
28613;SDS011;15806;53.548;9.964;2022-07-05T03:18:20;8.57;;;3.93;;
28613;SDS011;15806;53.548;9.964;2022-07-05T03:20:00;11.93;;;4.33;;
28613;SDS011;15806;53.548;9.964;2022-07-05T03:21:41;7.57;;;3.87;;
28613;SDS011;15806;53.548;9.964;2022-07-05T03:23:21;9.97;;;4.17;;
28613;SDS011;15806;53.548;9.964;2022-07-05T03:25:02;7.37;;;4.63;;
28613;SDS011;15806;53.548;9.964;2022-07-05T03:26:43;10.65;;;4.38;;
28613;SDS011;15806;53.548;9.964;2022-07-05T03:28:23;11.67;;;4.40;;
28613;SDS011;15806;53.548;9.964;2022-07-05T03:30:04;8.30;;;4.37;;
28613;SDS011;15806;53.548;9.964;2022-07-05T03:31:45;7.70;;;4.38;;
28613;SDS011;15806;53.548;9.964;2022-07-05T03:33:26;9.87;;;4.83;;
28613;SDS011;15806;53.548;9.964;2022-07-05T03:35:06;9.63;;;3.80;;
28613;SDS011;15806;53.548;9.964;2022-07-05T03:36:47;10.30;;;4.43;;
28613;SDS011;15806;53.548;9.964;2022-07-05T03:38:29;15.33;;;5.53;;
28613;SDS011;15806;53.548;9.964;2022-07-05T03:41:50;7.00;;;4.50;;
28613;SDS011;15806;53.548;9.964;2022-07-05T03:43:31;7.27;;;4.43;;
28613;SDS011;15806;53.548;9.964;2022-07-05T03:45:11;11.97;;;4.93;;
28613;SDS011;15806;53.548;9.964;2022-07-05T03:46:52;15.23;;;5.57;;
28613;SDS011;15806;53.548;9.964;2022-07-05T03:48:32;9.80;;;4.63;;
28613;SDS011;15806;53.548;9.964;2022-07-05T03:50:14;12.30;;;4.97;;
28613;SDS011;15806;53.548;9.964;2022-07-05T03:51:59;11.90;;;5.07;;
28613;SDS011;15806;53.548;9.964;2022-07-05T03:53:40;10.97;;;5.20;;
28613;SDS011;15806;53.548;9.964;2022-07-05T03:55:20;12.50;;;5.67;;
28613;SDS011;15806;53.548;9.964;2022-07-05T03:57:01;9.50;;;5.30;;
28613;SDS011;15806;53.548;9.964;2022-07-05T03:58:41;8.40;;;4.43;;
28613;SDS011;15806;53.548;9.964;2022-07-05T04:00:22;8.40;;;4.83;;
28613;SDS011;15806;53.548;9.964;2022-07-05T04:02:02;9.87;;;4.50;;
28613;SDS011;15806;53.548;9.964;2022-07-05T04:03:43;9.23;;;5.30;;
28613;SDS011;15806;53.548;9.964;2022-07-05T04:05:24;9.70;;;5.30;;
28613;SDS011;15806;53.548;9.964;2022-07-05T04:07:04;8.77;;;5.03;;
28613;SDS011;15806;53.548;9.964;2022-07-05T04:08:45;11.80;;;4.63;;
28613;SDS011;15806;53.548;9.964;2022-07-05T04:10:25;8.43;;;5.13;;
28613;SDS011;15806;53.548;9.964;2022-07-05T04:12:06;8.07;;;5.10;;
28613;SDS011;15806;53.548;9.964;2022-07-05T04:13:46;8.83;;;4.80;;
28613;SDS011;15806;53.548;9.964;2022-07-05T04:15:27;13.43;;;5.80;;
28613;SDS011;15806;53.548;9.964;2022-07-05T04:17:08;12.93;;;5.90;;
28613;SDS011;15806;53.548;9.964;2022-07-05T04:18:48;9.90;;;5.23;;
28613;SDS011;15806;53.548;9.964;2022-07-05T04:20:29;10.93;;;4.93;;
28613;SDS011;15806;53.548;9.964;2022-07-05T04:22:09;7.33;;;3.90;;
28613;SDS011;15806;53.548;9.964;2022-07-05T04:23:50;11.47;;;5.77;;
28613;SDS011;15806;53.548;9.964;2022-07-05T04:25:30;9.03;;;4.73;;
28613;SDS011;15806;53.548;9.964;2022-07-05T04:27:11;7.23;;;4.60;;
28613;SDS011;15806;53.548;9.964;2022-07-05T04:28:51;7.90;;;4.73;;
28613;SDS011;15806;53.548;9.964;2022-07-05T04:30:32;8.17;;;4.43;;
28613;SDS011;15806;53.548;9.964;2022-07-05T04:32:12;10.00;;;4.57;;
28613;SDS011;15806;53.548;9.964;2022-07-05T04:33:53;6.10;;;4.17;;
28613;SDS011;15806;53.548;9.964;2022-07-05T04:35:34;10.40;;;4.23;;
28613;SDS011;15806;53.548;9.964;2022-07-05T04:37:14;6.93;;;4.00;;
28613;SDS011;15806;53.548;9.964;2022-07-05T04:38:55;11.90;;;4.83;;
28613;SDS011;15806;53.548;9.964;2022-07-05T04:40:35;12.27;;;5.70;;
28613;SDS011;15806;53.548;9.964;2022-07-05T04:42:16;9.63;;;4.67;;
28613;SDS011;15806;53.548;9.964;2022-07-05T04:43:56;8.87;;;4.97;;
28613;SDS011;15806;53.548;9.964;2022-07-05T04:45:37;9.73;;;4.40;;
28613;SDS011;15806;53.548;9.964;2022-07-05T04:47:17;9.77;;;4.27;;
28613;SDS011;15806;53.548;9.964;2022-07-05T04:48:59;11.77;;;4.68;;
28613;SDS011;15806;53.548;9.964;2022-07-05T04:50:40;7.63;;;4.33;;
28613;SDS011;15806;53.548;9.964;2022-07-05T04:52:20;7.53;;;4.53;;
28613;SDS011;15806;53.548;9.964;2022-07-05T04:54:01;9.37;;;4.50;;
28613;SDS011;15806;53.548;9.964;2022-07-05T04:55:41;10.60;;;4.30;;
28613;SDS011;15806;53.548;9.964;2022-07-05T04:57:22;12.17;;;4.30;;
28613;SDS011;15806;53.548;9.964;2022-07-05T04:59:02;12.10;;;5.17;;
28613;SDS011;15806;53.548;9.964;2022-07-05T05:00:43;6.50;;;4.13;;
28613;SDS011;15806;53.548;9.964;2022-07-05T05:02:23;7.40;;;3.83;;
28613;SDS011;15806;53.548;9.964;2022-07-05T05:04:04;8.07;;;3.87;;
28613;SDS011;15806;53.548;9.964;2022-07-05T05:05:44;11.07;;;4.57;;
28613;SDS011;15806;53.548;9.964;2022-07-05T05:07:25;7.80;;;4.00;;
28613;SDS011;15806;53.548;9.964;2022-07-05T05:09:06;8.80;;;4.53;;
28613;SDS011;15806;53.548;9.964;2022-07-05T05:10:47;9.33;;;4.17;;
28613;SDS011;15806;53.548;9.964;2022-07-05T05:12:27;9.77;;;3.80;;
28613;SDS011;15806;53.548;9.964;2022-07-05T05:14:08;8.87;;;3.77;;
28613;SDS011;15806;53.548;9.964;2022-07-05T05:15:48;11.67;;;3.63;;
28613;SDS011;15806;53.548;9.964;2022-07-05T05:17:35;6.33;;;3.80;;
28613;SDS011;15806;53.548;9.964;2022-07-05T05:19:20;8.95;;;3.90;;
28613;SDS011;15806;53.548;9.964;2022-07-05T05:21:00;5.67;;;3.93;;
28613;SDS011;15806;53.548;9.964;2022-07-05T05:22:41;6.60;;;4.07;;
28613;SDS011;15806;53.548;9.964;2022-07-05T05:24:22;13.07;;;4.68;;
28613;SDS011;15806;53.548;9.964;2022-07-05T05:26:02;9.73;;;3.63;;
28613;SDS011;15806;53.548;9.964;2022-07-05T05:27:47;5.63;;;3.30;;
28613;SDS011;15806;53.548;9.964;2022-07-05T05:29:28;10.15;;;3.72;;
28613;SDS011;15806;53.548;9.964;2022-07-05T05:31:09;10.90;;;3.43;;
28613;SDS011;15806;53.548;9.964;2022-07-05T05:32:49;12.53;;;3.83;;
28613;SDS011;15806;53.548;9.964;2022-07-05T05:34:30;8.50;;;3.27;;
28613;SDS011;15806;53.548;9.964;2022-07-05T05:36:11;6.03;;;3.87;;
28613;SDS011;15806;53.548;9.964;2022-07-05T05:37:52;8.02;;;4.20;;
28613;SDS011;15806;53.548;9.964;2022-07-05T05:39:35;6.85;;;3.42;;
28613;SDS011;15806;53.548;9.964;2022-07-05T05:41:15;6.80;;;3.00;;
28613;SDS011;15806;53.548;9.964;2022-07-05T05:42:56;7.53;;;3.53;;
28613;SDS011;15806;53.548;9.964;2022-07-05T05:44:36;7.37;;;3.10;;
28613;SDS011;15806;53.548;9.964;2022-07-05T05:46:17;7.87;;;3.17;;
28613;SDS011;15806;53.548;9.964;2022-07-05T05:47:58;11.43;;;3.00;;
28613;SDS011;15806;53.548;9.964;2022-07-05T05:49:40;6.38;;;2.90;;
28613;SDS011;15806;53.548;9.964;2022-07-05T05:51:20;10.43;;;3.20;;
28613;SDS011;15806;53.548;9.964;2022-07-05T05:53:01;5.43;;;2.43;;
28613;SDS011;15806;53.548;9.964;2022-07-05T05:54:43;4.70;;;2.20;;
28613;SDS011;15806;53.548;9.964;2022-07-05T05:56:23;11.27;;;3.30;;
28613;SDS011;15806;53.548;9.964;2022-07-05T05:58:17;6.60;;;2.50;;
28613;SDS011;15806;53.548;9.964;2022-07-05T05:59:59;10.05;;;3.03;;
28613;SDS011;15806;53.548;9.964;2022-07-05T06:01:40;7.10;;;2.60;;
28613;SDS011;15806;53.548;9.964;2022-07-05T06:03:26;7.73;;;3.00;;
28613;SDS011;15806;53.548;9.964;2022-07-05T06:05:07;5.65;;;2.65;;
28613;SDS011;15806;53.548;9.964;2022-07-05T06:06:48;4.97;;;2.42;;
28613;SDS011;15806;53.548;9.964;2022-07-05T06:08:29;8.30;;;2.77;;
28613;SDS011;15806;53.548;9.964;2022-07-05T06:10:09;6.23;;;2.80;;
28613;SDS011;15806;53.548;9.964;2022-07-05T06:11:50;5.43;;;2.37;;
28613;SDS011;15806;53.548;9.964;2022-07-05T06:13:30;5.77;;;2.30;;
28613;SDS011;15806;53.548;9.964;2022-07-05T06:15:11;5.40;;;2.30;;
28613;SDS011;15806;53.548;9.964;2022-07-05T06:16:52;4.83;;;1.90;;
28613;SDS011;15806;53.548;9.964;2022-07-05T06:18:32;7.77;;;2.50;;
28613;SDS011;15806;53.548;9.964;2022-07-05T06:20:14;3.53;;;2.03;;
28613;SDS011;15806;53.548;9.964;2022-07-05T06:21:56;7.32;;;2.08;;
28613;SDS011;15806;53.548;9.964;2022-07-05T06:23:36;5.80;;;2.77;;
28613;SDS011;15806;53.548;9.964;2022-07-05T06:25:17;2.30;;;1.77;;
28613;SDS011;15806;53.548;9.964;2022-07-05T06:26:58;5.38;;;2.28;;
28613;SDS011;15806;53.548;9.964;2022-07-05T06:28:38;4.43;;;2.63;;
28613;SDS011;15806;53.548;9.964;2022-07-05T06:30:20;3.47;;;1.93;;
28613;SDS011;15806;53.548;9.964;2022-07-05T06:32:01;6.85;;;2.28;;
28613;SDS011;15806;53.548;9.964;2022-07-05T06:33:43;4.97;;;1.92;;
28613;SDS011;15806;53.548;9.964;2022-07-05T06:35:24;2.43;;;1.47;;
28613;SDS011;15806;53.548;9.964;2022-07-05T06:37:05;9.00;;;1.77;;
28613;SDS011;15806;53.548;9.964;2022-07-05T06:38:46;6.00;;;1.50;;
28613;SDS011;15806;53.548;9.964;2022-07-05T06:40:28;3.50;;;1.60;;
28613;SDS011;15806;53.548;9.964;2022-07-05T06:42:14;4.88;;;1.83;;
28613;SDS011;15806;53.548;9.964;2022-07-05T06:43:54;4.90;;;1.50;;
28613;SDS011;15806;53.548;9.964;2022-07-05T06:45:35;6.17;;;1.73;;
28613;SDS011;15806;53.548;9.964;2022-07-05T06:47:15;5.30;;;1.50;;
28613;SDS011;15806;53.548;9.964;2022-07-05T06:48:56;3.63;;;1.50;;
28613;SDS011;15806;53.548;9.964;2022-07-05T06:50:38;4.93;;;1.80;;
28613;SDS011;15806;53.548;9.964;2022-07-05T06:52:19;4.03;;;1.73;;
28613;SDS011;15806;53.548;9.964;2022-07-05T06:54:00;3.20;;;1.70;;
28613;SDS011;15806;53.548;9.964;2022-07-05T06:55:42;5.22;;;1.55;;
28613;SDS011;15806;53.548;9.964;2022-07-05T06:57:22;4.53;;;1.87;;
28613;SDS011;15806;53.548;9.964;2022-07-05T06:59:03;5.65;;;2.40;;
28613;SDS011;15806;53.548;9.964;2022-07-05T07:00:44;4.77;;;1.93;;
28613;SDS011;15806;53.548;9.964;2022-07-05T07:02:25;8.83;;;2.07;;
28613;SDS011;15806;53.548;9.964;2022-07-05T07:04:05;5.10;;;1.53;;
28613;SDS011;15806;53.548;9.964;2022-07-05T07:05:46;8.13;;;1.50;;
28613;SDS011;15806;53.548;9.964;2022-07-05T07:07:26;5.77;;;1.70;;
28613;SDS011;15806;53.548;9.964;2022-07-05T07:09:07;5.20;;;1.30;;
28613;SDS011;15806;53.548;9.964;2022-07-05T07:10:48;7.55;;;1.58;;
28613;SDS011;15806;53.548;9.964;2022-07-05T07:12:29;4.13;;;1.40;;
28613;SDS011;15806;53.548;9.964;2022-07-05T07:14:09;5.93;;;1.37;;
28613;SDS011;15806;53.548;9.964;2022-07-05T07:15:50;5.23;;;1.60;;
28613;SDS011;15806;53.548;9.964;2022-07-05T07:17:30;9.20;;;1.40;;
28613;SDS011;15806;53.548;9.964;2022-07-05T07:19:11;5.53;;;1.30;;
28613;SDS011;15806;53.548;9.964;2022-07-05T07:20:52;3.53;;;1.10;;
28613;SDS011;15806;53.548;9.964;2022-07-05T07:22:32;4.30;;;1.10;;
28613;SDS011;15806;53.548;9.964;2022-07-05T07:24:13;6.30;;;1.50;;
28613;SDS011;15806;53.548;9.964;2022-07-05T07:25:53;5.53;;;1.30;;
28613;SDS011;15806;53.548;9.964;2022-07-05T07:27:43;4.07;;;1.00;;
28613;SDS011;15806;53.548;9.964;2022-07-05T07:29:28;2.67;;;1.30;;
28613;SDS011;15806;53.548;9.964;2022-07-05T07:32:50;8.38;;;1.95;;
28613;SDS011;15806;53.548;9.964;2022-07-05T07:34:31;4.93;;;1.45;;
28613;SDS011;15806;53.548;9.964;2022-07-05T07:36:11;5.40;;;1.30;;
28613;SDS011;15806;53.548;9.964;2022-07-05T07:37:52;5.27;;;1.30;;
28613;SDS011;15806;53.548;9.964;2022-07-05T07:39:33;3.87;;;1.10;;
28613;SDS011;15806;53.548;9.964;2022-07-05T07:41:13;4.33;;;1.10;;
28613;SDS011;15806;53.548;9.964;2022-07-05T07:42:54;4.00;;;0.97;;
28613;SDS011;15806;53.548;9.964;2022-07-05T07:44:34;8.67;;;1.00;;
28613;SDS011;15806;53.548;9.964;2022-07-05T07:46:15;4.80;;;1.37;;
28613;SDS011;15806;53.548;9.964;2022-07-05T07:47:55;5.77;;;1.10;;
28613;SDS011;15806;53.548;9.964;2022-07-05T07:49:36;5.43;;;1.20;;
28613;SDS011;15806;53.548;9.964;2022-07-05T07:51:16;5.33;;;1.43;;
28613;SDS011;15806;53.548;9.964;2022-07-05T07:52:57;2.80;;;1.10;;
28613;SDS011;15806;53.548;9.964;2022-07-05T07:54:38;3.40;;;0.90;;
28613;SDS011;15806;53.548;9.964;2022-07-05T07:56:18;5.80;;;1.03;;
28613;SDS011;15806;53.548;9.964;2022-07-05T07:57:59;2.60;;;0.83;;
28613;SDS011;15806;53.548;9.964;2022-07-05T07:59:39;3.37;;;1.00;;
28613;SDS011;15806;53.548;9.964;2022-07-05T08:01:20;3.17;;;1.13;;
28613;SDS011;15806;53.548;9.964;2022-07-05T08:03:02;2.53;;;0.93;;
28613;SDS011;15806;53.548;9.964;2022-07-05T08:04:43;2.40;;;1.07;;
28613;SDS011;15806;53.548;9.964;2022-07-05T08:06:23;2.07;;;0.90;;
28613;SDS011;15806;53.548;9.964;2022-07-05T08:08:04;2.83;;;0.80;;
28613;SDS011;15806;53.548;9.964;2022-07-05T08:09:45;5.93;;;1.00;;
28613;SDS011;15806;53.548;9.964;2022-07-05T08:11:26;4.65;;;1.08;;
28613;SDS011;15806;53.548;9.964;2022-07-05T08:13:06;4.23;;;1.07;;
28613;SDS011;15806;53.548;9.964;2022-07-05T08:14:47;2.80;;;1.10;;
28613;SDS011;15806;53.548;9.964;2022-07-05T08:16:28;2.05;;;0.60;;
28613;SDS011;15806;53.548;9.964;2022-07-05T08:18:08;3.03;;;0.60;;
28613;SDS011;15806;53.548;9.964;2022-07-05T08:19:49;4.93;;;0.70;;
28613;SDS011;15806;53.548;9.964;2022-07-05T08:21:29;1.00;;;0.52;;
28613;SDS011;15806;53.548;9.964;2022-07-05T08:23:10;3.20;;;0.70;;
28613;SDS011;15806;53.548;9.964;2022-07-05T08:24:50;1.48;;;0.60;;
28613;SDS011;15806;53.548;9.964;2022-07-05T08:26:34;1.50;;;0.57;;
28613;SDS011;15806;53.548;9.964;2022-07-05T08:28:15;1.60;;;0.50;;
28613;SDS011;15806;53.548;9.964;2022-07-05T08:29:56;3.00;;;0.50;;
28613;SDS011;15806;53.548;9.964;2022-07-05T08:31:38;3.10;;;0.75;;
28613;SDS011;15806;53.548;9.964;2022-07-05T08:33:22;2.30;;;0.50;;
28613;SDS011;15806;53.548;9.964;2022-07-05T08:35:03;1.67;;;0.60;;
28613;SDS011;15806;53.548;9.964;2022-07-05T08:36:44;2.83;;;0.60;;
28613;SDS011;15806;53.548;9.964;2022-07-05T08:38:24;1.73;;;0.40;;
28613;SDS011;15806;53.548;9.964;2022-07-05T08:40:05;1.55;;;0.57;;
28613;SDS011;15806;53.548;9.964;2022-07-05T08:41:49;3.00;;;0.60;;
28613;SDS011;15806;53.548;9.964;2022-07-05T08:43:30;3.92;;;0.50;;
28613;SDS011;15806;53.548;9.964;2022-07-05T08:45:11;1.05;;;0.57;;
28613;SDS011;15806;53.548;9.964;2022-07-05T08:46:52;1.50;;;0.65;;
28613;SDS011;15806;53.548;9.964;2022-07-05T08:48:38;2.50;;;0.40;;
28613;SDS011;15806;53.548;9.964;2022-07-05T08:50:21;3.47;;;0.50;;
28613;SDS011;15806;53.548;9.964;2022-07-05T08:52:03;4.85;;;0.55;;
28613;SDS011;15806;53.548;9.964;2022-07-05T08:53:47;1.85;;;0.40;;
28613;SDS011;15806;53.548;9.964;2022-07-05T08:55:29;3.72;;;0.60;;
28613;SDS011;15806;53.548;9.964;2022-07-05T08:57:12;1.30;;;0.50;;
28613;SDS011;15806;53.548;9.964;2022-07-05T08:58:53;2.00;;;0.50;;
28613;SDS011;15806;53.548;9.964;2022-07-05T09:00:34;2.27;;;0.67;;
28613;SDS011;15806;53.548;9.964;2022-07-05T09:02:17;1.50;;;0.60;;
28613;SDS011;15806;53.548;9.964;2022-07-05T09:07:23;4.90;;;0.60;;
28613;SDS011;15806;53.548;9.964;2022-07-05T09:09:06;3.85;;;0.60;;
28613;SDS011;15806;53.548;9.964;2022-07-05T09:10:47;3.63;;;0.68;;
28613;SDS011;15806;53.548;9.964;2022-07-05T09:12:30;2.92;;;0.77;;
28613;SDS011;15806;53.548;9.964;2022-07-05T09:14:22;3.93;;;0.67;;
28613;SDS011;15806;53.548;9.964;2022-07-05T09:16:04;2.40;;;0.50;;
28613;SDS011;15806;53.548;9.964;2022-07-05T09:17:45;2.03;;;0.70;;
28613;SDS011;15806;53.548;9.964;2022-07-05T09:19:26;2.70;;;0.45;;
28613;SDS011;15806;53.548;9.964;2022-07-05T09:21:23;1.57;;;0.60;;
28613;SDS011;15806;53.548;9.964;2022-07-05T09:23:05;1.45;;;0.57;;
28613;SDS011;15806;53.548;9.964;2022-07-05T09:24:45;2.70;;;0.70;;
28613;SDS011;15806;53.548;9.964;2022-07-05T09:26:31;1.57;;;0.53;;
28613;SDS011;15806;53.548;9.964;2022-07-05T09:28:22;4.30;;;0.68;;
28613;SDS011;15806;53.548;9.964;2022-07-05T09:30:02;3.77;;;0.50;;
28613;SDS011;15806;53.548;9.964;2022-07-05T09:31:44;11.33;;;0.97;;
28613;SDS011;15806;53.548;9.964;2022-07-05T09:33:26;32.03;;;26.45;;
28613;SDS011;15806;53.548;9.964;2022-07-05T09:35:21;26.40;;;20.87;;
28613;SDS011;15806;53.548;9.964;2022-07-05T09:37:03;4.78;;;2.70;;
28613;SDS011;15806;53.548;9.964;2022-07-05T09:38:49;2.63;;;1.48;;
28613;SDS011;15806;53.548;9.964;2022-07-05T09:40:30;8.95;;;4.53;;
28613;SDS011;15806;53.548;9.964;2022-07-05T09:42:18;3.53;;;0.80;;
28613;SDS011;15806;53.548;9.964;2022-07-05T09:44:00;1.67;;;0.82;;
28613;SDS011;15806;53.548;9.964;2022-07-05T09:46:02;4.23;;;1.47;;
28613;SDS011;15806;53.548;9.964;2022-07-05T09:47:45;3.20;;;1.20;;
28613;SDS011;15806;53.548;9.964;2022-07-05T09:49:27;2.63;;;0.75;;
28613;SDS011;15806;53.548;9.964;2022-07-05T09:51:08;3.10;;;2.47;;
28613;SDS011;15806;53.548;9.964;2022-07-05T09:52:50;2.50;;;0.60;;
28613;SDS011;15806;53.548;9.964;2022-07-05T09:54:36;2.85;;;1.65;;
28613;SDS011;15806;53.548;9.964;2022-07-05T09:56:16;6.57;;;0.50;;
28613;SDS011;15806;53.548;9.964;2022-07-05T09:57:57;1.27;;;0.40;;
28613;SDS011;15806;53.548;9.964;2022-07-05T09:59:38;1.00;;;0.30;;
28613;SDS011;15806;53.548;9.964;2022-07-05T10:01:23;1.33;;;0.70;;
28613;SDS011;15806;53.548;9.964;2022-07-05T10:03:07;3.42;;;0.90;;
28613;SDS011;15806;53.548;9.964;2022-07-05T10:04:47;3.60;;;1.70;;
28613;SDS011;15806;53.548;9.964;2022-07-05T10:06:36;5.85;;;0.93;;
28613;SDS011;15806;53.548;9.964;2022-07-05T10:08:16;0.97;;;0.40;;
28613;SDS011;15806;53.548;9.964;2022-07-05T10:09:59;2.15;;;0.50;;
28613;SDS011;15806;53.548;9.964;2022-07-05T10:11:40;1.35;;;0.35;;
28613;SDS011;15806;53.548;9.964;2022-07-05T10:13:21;1.20;;;0.60;;
28613;SDS011;15806;53.548;9.964;2022-07-05T10:15:02;1.40;;;0.43;;
28613;SDS011;15806;53.548;9.964;2022-07-05T10:16:45;2.67;;;0.60;;
28613;SDS011;15806;53.548;9.964;2022-07-05T10:18:29;1.33;;;0.47;;
28613;SDS011;15806;53.548;9.964;2022-07-05T10:20:20;1.98;;;0.73;;
28613;SDS011;15806;53.548;9.964;2022-07-05T10:22:12;0.73;;;0.47;;
28613;SDS011;15806;53.548;9.964;2022-07-05T10:23:53;3.70;;;0.75;;